QUI SOM?

ITER5 és una empresa especialitzada en el cronometratge i gestió esportiva. Ens adrecem a les institucions públiques i privades, als clubs i associacions esportives per tal de proporcionar els nostres coneixements i recursos.

INFORMACIÓ
  • Complex la Caparrella. Ed. CEEI. 2.3 - 25192 - LLEIDA
  • Lat.: 41.599045 | Long.: 0.581511
  • 635-164-197 / 654-555-394
  • info@iter5.cat

Resultats Trail Montroig - Sant Llorenç - Speed - Edició 2019

Pos. Dorsal Nom T.Oficial
1 395 TONI D. FARRE 01:35:10
2 424 IÑAKI MARTINEZ GOMEZ 01:35:22
3 301 JORDI COMELLAS ORÓ 01:38:12
4 310 MARTIN MATEO BERDINI 01:41:47
5 436 JORDI AZNAR TUDO 01:43:11
6 403 TONI MORELL CAÑIZARES 01:44:34
7 313 GERARD MONTANE TARRAGONA 01:44:56
8 323 DANIEL BUÑOLA ALFARO 01:44:57
9 362 IVÁN LLAMOSAS MORTE 01:50:28
10 252 ANDREU BERTRAN PIJUAN 01:50:42
11 399 GEMMA MAIMÓ IBÁÑEZ 01:51:38
12 264 MIREIA SANTESMASSES 01:51:59
13 367 JOAN FARNOS CANALDA 01:52:05
14 368 OSCAR RÍOS CALVO 01:52:07
15 333 JOSEP MARIA FARRÉ GRAU 01:52:27
16 397 RUBEN GARCIA MARQUES 01:53:22
17 406 JOSEP PALLÀS I CARRERA 01:55:50
18 269 IMMA PARRILLA NOVA 01:56:19
19 392 ALBERT CARBONELL VILCHES 01:56:51
20 425 FERRAN PONS COLL 01:57:39
21 361 ARTUR USED TREPAT 01:58:19
22 332 ADRIANA DAZA PEREZ 01:58:36
23 307 DAVID LEON RIBA 01:58:37
24 435 RIKI ALLEPUZ FARRÉ 02:00:02
25 380 JORDI SIERRA PROFITOS 02:00:17
26 360 NARCÍS FARRÉ CANTÓ 02:00:33
27 374 GUILLE SUAREZ GARCIA 02:01:48
28 352 GENÍS ALÍAS SEGUÉS 02:02:02
29 340 VICTOR BARÓ OTO 02:02:17
30 337 SEBASTIA BATALLA BANYERES 02:02:33
31 278 ORIOL SABATE SALA 02:05:04
32 355 DAVID BERRAL TORRUELLA 02:05:06
33 295 ORIOL CONDAL MILL 02:05:50
34 256 EMI MARTÍN FERNÀNDEZ 02:06:07
35 260 MARC LLOBERA LLADOS 02:06:13
36 336 SERGI FONT PAREJA 02:06:20
37 339 SEBAS ZAFRA VALVERDE 02:06:48
38 291 ALBERT BARRERA CANO 02:07:47
39 305 CARLES GRA CASANOVES 02:07:49
40 331 FERRAN FARRÉ LLANES 02:07:54
41 401 SILVIA MARTINEZ PIÑERO 02:07:55
42 356 ALBERT CABALLER BIAYNA 02:08:13
43 261 ALBERT RUBIÓ BALAGUÉ 02:09:05
44 438 JOEL PONT QUER 02:09:24
45 257 ELIES FARRÉ MONJO 02:10:40
46 413 DAN MARIUS TIMAR 02:10:46
47 385 XAVIER AGUSTÍ SÀNCHEZ 02:10:48
48 263 JOSEP FRANCESC ESTRADÉ RIERA 02:11:35
49 433 SERGIO DIAZ SANCHEZ 02:11:44
50 369 SALVA CAPELL PERNÍA 02:11:55
51 304 JOAN GONZALEZ CASALS 02:12:08
52 346 XAVIER GASTÓ RODRIGUEZ 02:14:50
53 375 MARC VALLS SOLANES 02:15:05
54 335 OLGA NAVARRO CAVALLE 02:15:11
55 430 MARC CONSUL 02:15:18
56 341 JOAN LATORRE CARRIÓN 02:16:34
57 262 JOAN CARLES ROCA FARRERES 02:16:50
58 382 CRISTIAN CLEMENTE FERNANDEZ 02:17:14
59 411 RUBEN SERRANO SANCHEZ 02:17:33
60 439 GERARD ROJAS CASTILLO 02:17:37
61 316 JAUME REÑÉ GUERRERO 02:17:42
62 412 MARÇAL SOLER VALL 02:18:11
63 324 SANDRA ARAUJO SÀNCHEZ 02:18:25
64 327 JOAN LUQUE BARRULL 02:18:25
65 348 JUANIN RODRIGUEZ LILLO 02:18:29
66 417 JOSEP MA BALAGUERÓ I BOTIGUÉ 02:19:03
67 328 JOSEP MARIA GARCIA GOU 02:19:29
68 251 ANTONI VILA ULLOA 02:19:30
69 409 MARTA SANCHEZ PABLO 02:19:31
70 319 RAMON TEJEDOR FONTANET 02:19:43
71 407 JORDI POMPIDO MANONELLES 02:20:45
72 297 JORDI BANYERES VILA 02:20:46
73 344 SILVIA HILL MOLINA 02:21:27
74 343 CARLES VILADEGUT ORTIZ 02:22:48
75 351 ANTONIO TREPAT SENTIS 02:25:23
76 286 JOAN JORDI HERMOSO LASHERAS 02:25:23
77 293 XAVIER ALCOBÉ TARROJA 02:26:18
78 428 EVA CASTELLS 02:26:22
79 330 NOEMI GRAU SANVISEN 02:26:32
80 410 LLUIS SANDIUMENGE TURMO 02:26:40
81 393 ROBERT CARULLA SOLSONA 02:26:40
82 357 DAVID GUIU HERNÀNDEZ 02:27:00
83 387 PILAR ARDIACA 02:27:01
84 302 JORDI ESTRADA MITJANS 02:27:03
85 386 LAURA ALÀ CATALÁN 02:27:12
86 258 JOAQUIM FOLGUERA CASAS 02:27:32
87 285 DAVID FONT DOMÍNGUEZ 02:28:30
88 373 NÚRIA PLENS SICART 02:29:41
89 432 JOSEP ROMA CASTELLS 02:29:42
90 309 ANDRES MADERAL LOBO 02:29:46
91 254 ENRIC EROLES NAVARRO 02:30:53
92 431 DANIEL ADAN FREIXES 02:31:33
93 259 MARC QUERALT LLOP 02:31:46
94 350 PACO GARCIA RUIZ 02:31:52
95 427 DOLORS GUIN RICARD 02:31:53
96 300 ARNAU CASTILLO BENET 02:32:04
97 365 ALBA PRUNERA BALLESTÉ 02:34:24
98 366 MARINA PIÑOL MIARNAU 02:34:24
99 359 CARLES OLIVART I ESCODA 02:34:42
100 404 JAUME MORENO VICARIO 02:35:18
101 383 GUILLEM GARCIANDIA 02:35:27
102 384 HÈCTOR QUINTANA HERNÁNDEZ 02:35:27
103 267 CRISTIAN ROMERO SORDO 02:36:16
104 429 FLORS PALLAS BERGUA 02:36:42
105 394 CARLES CASTELLÀ JOVÉ 02:36:58
106 289 HECTOR SERRAT ARTIGUES 02:37:47
107 345 XAVI MARTIN TORRELLES 02:38:16
108 338 NATALIA VALERA BATALLA 02:38:21
109 274 JONATHAN GIRON BARBECHO 02:38:24
110 284 PAOLA CARMONA ARIAS 02:38:25
111 308 ANDRÉS MADERAL CALERO 02:38:46
112 423 JANET POCINO SABAO 02:38:57
113 329 DIDAC GRAU SANVISEN 02:39:19
114 437 JORDI MARCH FONOLL 02:39:57
115 400 LAIA MARIN CAMINO 02:40:17
116 299 XAVI CASTELLVI SANTAMARIA 02:41:48
117 296 GEMMA AMAT CAMATS 02:42:16
118 271 XAVIER COMA NOVAU 02:42:44
119 379 JESUS CABEZAS BUIXADERA 02:42:45
120 390 JORDI BOSCH 02:42:58
121 298 JOAN BLANCH MORERA 02:43:26
122 303 NÚRIA GARCIA GARCIA 02:45:18
123 294 IVAN RAMON FALCÓ 02:45:47
124 353 ROGER ALBERO 02:46:39
125 354 CARLOS TERES MORELL 02:46:40
126 311 ALBERT MAZA MILLERA 02:46:51
127 388 PEDRO ARDIACA PEREZ 02:47:45
128 312 JOSEP MARIA MIRÓ HIDALGO 02:47:58
129 276 NATÀLIA MOLINA PRUNERA 02:48:31
130 342 PRUDEN MORALES LEON 02:50:02
131 376 ENRIC GALLART LUCERO 02:52:36
132 290 IVAN ZABALA AYASO 02:52:49
133 287 ERIKA HERNANDEZ PEREZ 02:52:50
134 370 BERTA AGUIRRE NOGUERA 02:55:34
135 391 ANNA BOSCH GONZALEZ 02:55:34
136 426 MARINA CHACON ESTEVE 02:55:35
137 318 ARITZ ROYO ESNAL 02:56:31
138 279 JAVIER SAMPER VILLAR 02:56:32
139 277 MAGDA ORTEU CORTES 03:02:49
140 273 NOEMI FARRE ESTANY 03:02:50
141 322 ROSA MARIA VINYALS MORAGREGA 03:06:09
142 325 EDUARD CAÑADAS ALFRANCA 03:06:28
143 434 CARLOTA SERRA OLIVER 03:07:01
144 440 MONTSE SALA GARRIGA 03:09:10
145 288 JOSE LUIS MONSONIS GARCIA 03:15:22
146 378 MARTA TORRELLES GUTIERREZ 03:16:52
147 419 DANI UTGÉ GUILLÉN 03:34:44
148 275 GINA HORTAL CASTAÑO 03:35:01
149 281 SONIA ZAPATER ESTOPA 03:57:27